createdAt,value
2019-01-08T00:06:58.478Z,2.10
2019-01-08T00:12:31.778Z,2.00
2019-01-08T00:18:53.216Z,1.77
2019-01-08T00:30:40.516Z,1.57
2019-01-08T00:42:42.488Z,1.80
2019-01-08T00:48:43.097Z,1.33
2019-01-08T00:54:24.511Z,1.53
2019-01-08T01:19:05.862Z,1.33
2019-01-08T01:38:21.607Z,0.97
2019-01-08T04:03:48.487Z,1.87
2019-01-08T05:07:21.952Z,2.00
2019-01-08T06:54:34.419Z,2.40
2019-01-08T07:02:58.289Z,2.47
2019-01-08T07:28:42.954Z,2.40
2019-01-08T07:35:09.575Z,2.80
2019-01-08T07:41:09.909Z,2.30
2019-01-08T07:47:12.585Z,2.83
2019-01-08T07:52:57.720Z,2.07
2019-01-08T07:58:40.804Z,2.23
2019-01-08T08:04:15.202Z,2.33
2019-01-08T08:09:42.734Z,2.57
2019-01-08T08:15:29.857Z,3.10
2019-01-08T08:21:21.491Z,2.73
2019-01-08T08:26:56.157Z,2.20
2019-01-08T08:32:41.226Z,2.20
2019-01-08T08:44:39.644Z,2.93
2019-01-08T08:50:08.901Z,2.17
2019-01-08T08:56:15.415Z,2.53
2019-01-08T09:01:27.107Z,1.73
2019-01-08T09:07:06.493Z,1.70
2019-01-08T09:12:38.873Z,0.93
2019-01-08T09:18:00.329Z,1.63
2019-01-08T09:23:34.861Z,1.53
2019-01-08T09:29:13.280Z,1.73
2019-01-08T09:34:47.273Z,1.60
2019-01-08T09:40:44.725Z,1.40
2019-01-08T09:46:30.226Z,1.63
2019-01-08T09:51:52.093Z,1.77
2019-01-08T10:02:57.249Z,2.13
2019-01-08T10:15:12.169Z,1.73
2019-01-08T10:20:22.477Z,1.93
2019-01-08T10:25:47.832Z,2.20
2019-01-08T10:31:00.472Z,1.93
2019-01-08T10:36:24.492Z,2.00
2019-01-08T10:42:02.471Z,2.00
2019-01-08T10:47:25.236Z,1.87
2019-01-08T10:53:00.984Z,1.57
2019-01-08T10:58:23.501Z,1.50
2019-01-08T11:10:37.727Z,1.23
2019-01-08T11:16:04.472Z,1.33
2019-01-08T11:21:36.030Z,1.30
2019-01-08T11:27:12.095Z,1.40
2019-01-08T11:38:47.371Z,1.37
2019-01-08T11:44:13.518Z,1.93
2019-01-08T11:49:29.890Z,2.07
2019-01-08T11:55:00.722Z,1.93
2019-01-08T12:00:26.852Z,1.43
2019-01-08T12:31:20.556Z,2.47
2019-01-08T12:37:23.407Z,1.80
2019-01-08T12:43:58.280Z,1.70
2019-01-08T12:53:04.080Z,2.10
2019-01-08T12:56:15.141Z,2.07
2019-01-08T13:02:15.097Z,1.53
2019-01-08T13:07:56.936Z,1.90
2019-01-08T13:13:08.138Z,1.57
2019-01-08T13:19:48.858Z,1.30
2019-01-08T13:25:09.860Z,1.17
2019-01-08T13:30:29.071Z,1.23
2019-01-08T13:35:51.643Z,2.17
2019-01-08T13:41:09.694Z,1.70
2019-01-08T13:46:28.490Z,2.00
2019-01-08T13:51:45.601Z,2.20
2019-01-08T13:57:11.444Z,2.17
2019-01-08T14:02:48.243Z,2.20
2019-01-08T14:08:28.138Z,2.07
2019-01-08T14:13:44.787Z,2.17
2019-01-08T14:19:20.062Z,2.07
2019-01-08T14:24:55.582Z,2.57
2019-01-08T14:30:11.165Z,1.97
2019-01-08T14:35:22.594Z,1.77
2019-01-08T14:40:40.535Z,2.30
2019-01-08T14:45:57.560Z,2.10
2019-01-08T14:51:21.391Z,2.10
2019-01-08T14:56:45.507Z,2.70
2019-01-08T15:02:02.036Z,2.17
2019-01-08T15:07:12.190Z,1.93
2019-01-08T15:12:29.472Z,1.93
2019-01-08T15:17:46.766Z,2.00
2019-01-08T15:23:03.094Z,1.57
2019-01-08T15:28:24.843Z,1.63
2019-01-08T15:33:53.817Z,2.00
2019-01-08T15:39:18.317Z,1.30
2019-01-08T17:16:36.623Z,1.30
2019-01-08T17:23:32.557Z,1.57
2019-01-08T17:41:10.586Z,1.53
2019-01-08T17:58:42.555Z,2.03
2019-01-08T18:04:22.222Z,2.00
2019-01-08T18:16:38.405Z,1.77
2019-01-08T18:20:14.440Z,1.80
2019-01-08T18:21:42.299Z,1.93
2019-01-08T18:27:22.676Z,1.40
2019-01-08T18:34:16.482Z,1.10
2019-01-08T18:53:36.424Z,1.20
2019-01-08T18:54:09.067Z,1.50
2019-01-08T19:25:46.333Z,1.60
2019-01-08T19:32:07.060Z,1.80
2019-01-08T19:44:20.727Z,1.73
2019-01-08T19:55:49.215Z,1.53
2019-01-08T20:19:05.978Z,1.80
2019-01-08T20:24:25.575Z,1.77
2019-01-08T20:29:40.089Z,1.37
2019-01-08T20:34:48.633Z,2.10
2019-01-08T20:40:01.263Z,1.60
2019-01-08T20:45:14.556Z,1.50
2019-01-08T20:50:48.317Z,1.50
2019-01-08T20:55:55.468Z,1.33
2019-01-08T21:01:14.603Z,1.70
2019-01-08T21:06:26.201Z,1.77
2019-01-08T21:11:35.611Z,1.53
2019-01-08T21:16:46.800Z,1.63
2019-01-08T21:22:05.489Z,1.33
2019-01-08T21:27:24.265Z,1.30
2019-01-08T21:32:34.911Z,1.50
2019-01-08T21:37:46.593Z,1.67
2019-01-08T21:42:54.589Z,1.50
2019-01-08T21:48:00.077Z,1.50
2019-01-08T21:53:09.783Z,1.70
2019-01-08T21:58:36.284Z,1.43
2019-01-08T22:03:43.339Z,1.40
2019-01-08T22:08:56.923Z,1.93
2019-01-08T22:14:01.408Z,1.53
2019-01-08T22:19:08.318Z,1.70
2019-01-08T22:24:14.656Z,1.63
2019-01-08T22:29:20.621Z,2.00
2019-01-08T22:34:29.281Z,1.10
2019-01-08T22:39:36.800Z,1.33
2019-01-08T22:44:53.025Z,1.13
2019-01-08T22:50:00.348Z,1.40
2019-01-08T22:55:11.974Z,1.40
2019-01-08T23:01:05.780Z,1.60
2019-01-08T23:06:10.202Z,1.57
2019-01-08T23:11:20.400Z,1.00
2019-01-08T23:16:29.414Z,1.00
2019-01-08T23:21:35.103Z,1.10
2019-01-08T23:26:41.056Z,1.23
2019-01-08T23:31:49.202Z,1.20
2019-01-08T23:37:02.306Z,0.87
2019-01-08T23:42:09.671Z,1.00
2019-01-08T23:47:27.413Z,1.20
2019-01-08T23:52:55.787Z,1.40
2019-01-08T23:58:03.048Z,0.70
